sensor_id;sensor_type;location;lat;lon;timestamp;pressure;altitude;pressure_sealevel;temperature;humidity
62946;BME280;52164;52.212;-1.010;2023-01-24T00:00:23;102966.55;;;-3.65;79.78
62946;BME280;52164;52.212;-1.010;2023-01-24T00:02:50;102963.02;;;-3.67;79.83
62946;BME280;52164;52.212;-1.010;2023-01-24T00:05:16;102960.52;;;-3.69;79.89
62946;BME280;52164;52.212;-1.010;2023-01-24T00:07:41;102963.31;;;-3.71;79.86
62946;BME280;52164;52.212;-1.010;2023-01-24T00:10:07;102966.52;;;-3.73;79.99
62946;BME280;52164;52.212;-1.010;2023-01-24T00:12:32;102968.30;;;-3.74;79.97
62946;BME280;52164;52.212;-1.010;2023-01-24T00:14:58;102966.43;;;-3.74;79.76
62946;BME280;52164;52.212;-1.010;2023-01-24T00:17:23;102966.13;;;-3.73;79.54
62946;BME280;52164;52.212;-1.010;2023-01-24T00:19:49;102964.46;;;-3.74;79.60
62946;BME280;52164;52.212;-1.010;2023-01-24T00:22:15;102966.71;;;-3.75;79.70
62946;BME280;52164;52.212;-1.010;2023-01-24T00:24:40;102963.61;;;-3.72;79.77
62946;BME280;52164;52.212;-1.010;2023-01-24T00:27:05;102959.17;;;-3.69;79.65
62946;BME280;52164;52.212;-1.010;2023-01-24T00:29:30;102962.31;;;-3.67;79.78
62946;BME280;52164;52.212;-1.010;2023-01-24T00:31:56;102963.89;;;-3.65;79.74
62946;BME280;52164;52.212;-1.010;2023-01-24T00:34:21;102962.98;;;-3.62;79.85
62946;BME280;52164;52.212;-1.010;2023-01-24T00:36:46;102961.92;;;-3.61;79.39
62946;BME280;52164;52.212;-1.010;2023-01-24T00:39:11;102960.44;;;-3.61;79.00
62946;BME280;52164;52.212;-1.010;2023-01-24T00:41:37;102959.01;;;-3.65;78.86
62946;BME280;52164;52.212;-1.010;2023-01-24T00:44:02;102959.43;;;-3.70;79.06
62946;BME280;52164;52.212;-1.010;2023-01-24T00:46:27;102957.19;;;-3.74;79.02
62946;BME280;52164;52.212;-1.010;2023-01-24T00:48:53;102958.42;;;-3.77;78.96
62946;BME280;52164;52.212;-1.010;2023-01-24T00:51:18;102960.92;;;-3.80;78.94
62946;BME280;52164;52.212;-1.010;2023-01-24T00:53:43;102964.39;;;-3.85;79.16
62946;BME280;52164;52.212;-1.010;2023-01-24T00:56:08;102966.02;;;-3.90;79.11
62946;BME280;52164;52.212;-1.010;2023-01-24T00:58:34;102971.96;;;-3.94;79.09
62946;BME280;52164;52.212;-1.010;2023-01-24T01:00:59;102969.53;;;-3.97;79.38
62946;BME280;52164;52.212;-1.010;2023-01-24T01:03:28;102976.97;;;-4.00;79.41
62946;BME280;52164;52.212;-1.010;2023-01-24T01:05:57;102974.27;;;-4.02;79.53
62946;BME280;52164;52.212;-1.010;2023-01-24T01:08:23;102972.58;;;-4.05;79.45
62946;BME280;52164;52.212;-1.010;2023-01-24T01:10:48;102973.02;;;-4.10;79.56
62946;BME280;52164;52.212;-1.010;2023-01-24T01:13:13;102978.13;;;-4.13;79.70
62946;BME280;52164;52.212;-1.010;2023-01-24T01:15:39;102975.04;;;-4.16;79.61
62946;BME280;52164;52.212;-1.010;2023-01-24T01:18:04;102981.20;;;-4.17;79.75
62946;BME280;52164;52.212;-1.010;2023-01-24T01:20:30;102986.19;;;-4.19;79.60
62946;BME280;52164;52.212;-1.010;2023-01-24T01:22:55;102980.82;;;-4.21;79.75
62946;BME280;52164;52.212;-1.010;2023-01-24T01:25:21;102976.97;;;-4.21;79.81
62946;BME280;52164;52.212;-1.010;2023-01-24T01:27:46;102976.29;;;-4.21;79.80
62946;BME280;52164;52.212;-1.010;2023-01-24T01:30:11;102980.44;;;-4.21;79.73
62946;BME280;52164;52.212;-1.010;2023-01-24T01:32:37;102977.92;;;-4.22;79.63
62946;BME280;52164;52.212;-1.010;2023-01-24T01:35:02;102973.66;;;-4.19;79.95
62946;BME280;52164;52.212;-1.010;2023-01-24T01:37:27;102971.11;;;-4.17;79.82
62946;BME280;52164;52.212;-1.010;2023-01-24T01:39:53;102971.47;;;-4.17;79.88
62946;BME280;52164;52.212;-1.010;2023-01-24T01:42:18;102975.17;;;-4.16;79.96
62946;BME280;52164;52.212;-1.010;2023-01-24T01:44:43;102974.50;;;-4.14;80.00
62946;BME280;52164;52.212;-1.010;2023-01-24T01:47:21;102973.08;;;-4.11;80.07
62946;BME280;52164;52.212;-1.010;2023-01-24T01:49:57;102979.68;;;-4.10;80.02
62946;BME280;52164;52.212;-1.010;2023-01-24T01:52:25;102982.27;;;-4.10;79.98
62946;BME280;52164;52.212;-1.010;2023-01-24T01:54:52;102978.43;;;-4.11;80.10
62946;BME280;52164;52.212;-1.010;2023-01-24T01:57:21;102974.68;;;-4.14;80.01
62946;BME280;52164;52.212;-1.010;2023-01-24T01:59:52;102979.13;;;-4.15;80.07
62946;BME280;52164;52.212;-1.010;2023-01-24T02:02:19;102977.89;;;-4.15;80.28
62946;BME280;52164;52.212;-1.010;2023-01-24T02:04:49;102984.46;;;-4.16;80.09
62946;BME280;52164;52.212;-1.010;2023-01-24T02:07:22;102982.21;;;-4.17;80.09
62946;BME280;52164;52.212;-1.010;2023-01-24T02:09:49;102983.95;;;-4.21;79.82
62946;BME280;52164;52.212;-1.010;2023-01-24T02:12:20;102978.39;;;-4.24;80.01
62946;BME280;52164;52.212;-1.010;2023-01-24T02:14:47;102987.40;;;-4.27;79.83
62946;BME280;52164;52.212;-1.010;2023-01-24T02:17:35;102988.63;;;-4.30;80.02
62946;BME280;52164;52.212;-1.010;2023-01-24T02:20:20;102989.23;;;-4.34;79.87
62946;BME280;52164;52.212;-1.010;2023-01-24T02:22:50;102991.36;;;-4.36;80.11
62946;BME280;52164;52.212;-1.010;2023-01-24T02:25:36;102990.55;;;-4.35;80.16
62946;BME280;52164;52.212;-1.010;2023-01-24T02:28:02;102989.19;;;-4.35;80.27
62946;BME280;52164;52.212;-1.010;2023-01-24T02:30:28;102990.93;;;-4.33;80.45
62946;BME280;52164;52.212;-1.010;2023-01-24T02:32:54;102988.54;;;-4.29;80.62
62946;BME280;52164;52.212;-1.010;2023-01-24T02:35:21;102989.52;;;-4.23;80.78
62946;BME280;52164;52.212;-1.010;2023-01-24T02:37:47;102988.50;;;-4.17;80.56
62946;BME280;52164;52.212;-1.010;2023-01-24T02:40:12;102985.80;;;-4.15;80.34
62946;BME280;52164;52.212;-1.010;2023-01-24T02:42:38;102981.67;;;-4.14;80.29
62946;BME280;52164;52.212;-1.010;2023-01-24T02:45:05;102983.05;;;-4.13;80.18
62946;BME280;52164;52.212;-1.010;2023-01-24T02:47:35;102978.77;;;-4.12;80.32
62946;BME280;52164;52.212;-1.010;2023-01-24T02:50:02;102979.73;;;-4.13;79.84
62946;BME280;52164;52.212;-1.010;2023-01-24T02:52:27;102976.69;;;-4.17;79.46
62946;BME280;52164;52.212;-1.010;2023-01-24T02:55:13;102977.23;;;-4.22;79.70
62946;BME280;52164;52.212;-1.010;2023-01-24T02:57:38;102976.72;;;-4.23;79.82
62946;BME280;52164;52.212;-1.010;2023-01-24T03:00:24;102976.54;;;-4.29;79.54
62946;BME280;52164;52.212;-1.010;2023-01-24T03:02:49;102977.47;;;-4.33;79.64
62946;BME280;52164;52.212;-1.010;2023-01-24T03:05:16;102978.36;;;-4.38;79.46
62946;BME280;52164;52.212;-1.010;2023-01-24T03:07:41;102980.33;;;-4.42;79.48
62946;BME280;52164;52.212;-1.010;2023-01-24T03:10:09;102978.16;;;-4.44;79.27
62946;BME280;52164;52.212;-1.010;2023-01-24T03:12:34;102981.22;;;-4.48;79.30
62946;BME280;52164;52.212;-1.010;2023-01-24T03:15:20;102983.27;;;-4.52;79.25
62946;BME280;52164;52.212;-1.010;2023-01-24T03:18:05;102983.56;;;-4.56;79.32
62946;BME280;52164;52.212;-1.010;2023-01-24T03:20:50;102981.56;;;-4.57;79.48
62946;BME280;52164;52.212;-1.010;2023-01-24T03:23:37;102978.58;;;-4.56;79.68
62946;BME280;52164;52.212;-1.010;2023-01-24T03:26:23;102981.13;;;-4.53;79.59
62946;BME280;52164;52.212;-1.010;2023-01-24T03:29:08;102976.73;;;-4.52;79.59
62946;BME280;52164;52.212;-1.010;2023-01-24T03:31:53;102986.48;;;-4.50;79.69
62946;BME280;52164;52.212;-1.010;2023-01-24T03:34:38;102983.38;;;-4.50;79.49
62946;BME280;52164;52.212;-1.010;2023-01-24T03:37:14;102986.40;;;-4.51;79.15
62946;BME280;52164;52.212;-1.010;2023-01-24T03:39:39;102986.27;;;-4.55;79.20
62946;BME280;52164;52.212;-1.010;2023-01-24T03:42:25;102989.42;;;-4.57;79.25
62946;BME280;52164;52.212;-1.010;2023-01-24T03:44:51;102989.13;;;-4.58;79.41
62946;BME280;52164;52.212;-1.010;2023-01-24T03:47:16;102985.48;;;-4.60;79.58
62946;BME280;52164;52.212;-1.010;2023-01-24T03:49:42;102978.11;;;-4.62;79.75
62946;BME280;52164;52.212;-1.010;2023-01-24T03:52:27;102971.23;;;-4.61;79.89
62946;BME280;52164;52.212;-1.010;2023-01-24T03:54:55;102969.41;;;-4.60;80.02
62946;BME280;52164;52.212;-1.010;2023-01-24T03:57:21;102968.52;;;-4.61;79.82
62946;BME280;52164;52.212;-1.010;2023-01-24T03:59:47;102961.75;;;-4.64;79.72
62946;BME280;52164;52.212;-1.010;2023-01-24T04:02:12;102963.52;;;-4.65;80.02
62946;BME280;52164;52.212;-1.010;2023-01-24T04:04:37;102963.73;;;-4.68;79.77
62946;BME280;52164;52.212;-1.010;2023-01-24T04:07:24;102969.52;;;-4.69;79.50
62946;BME280;52164;52.212;-1.010;2023-01-24T04:09:50;102969.24;;;-4.72;79.32
62946;BME280;52164;52.212;-1.010;2023-01-24T04:12:16;102969.61;;;-4.73;79.43
62946;BME280;52164;52.212;-1.010;2023-01-24T04:14:41;102969.28;;;-4.75;79.61
62946;BME280;52164;52.212;-1.010;2023-01-24T04:17:08;102965.02;;;-4.76;79.75
62946;BME280;52164;52.212;-1.010;2023-01-24T04:19:33;102964.48;;;-4.73;80.07
62946;BME280;52164;52.212;-1.010;2023-01-24T04:21:58;102964.31;;;-4.69;80.25
62946;BME280;52164;52.212;-1.010;2023-01-24T04:24:24;102964.71;;;-4.66;80.11
62946;BME280;52164;52.212;-1.010;2023-01-24T04:26:49;102966.27;;;-4.64;79.78
62946;BME280;52164;52.212;-1.010;2023-01-24T04:29:15;102966.06;;;-4.62;79.71
62946;BME280;52164;52.212;-1.010;2023-01-24T04:31:40;102969.59;;;-4.62;80.05
62946;BME280;52164;52.212;-1.010;2023-01-24T04:34:06;102972.84;;;-4.59;79.95
62946;BME280;52164;52.212;-1.010;2023-01-24T04:36:31;102972.58;;;-4.58;79.78
62946;BME280;52164;52.212;-1.010;2023-01-24T04:38:57;102966.55;;;-4.59;79.70
62946;BME280;52164;52.212;-1.010;2023-01-24T04:41:22;102963.88;;;-4.62;79.76
62946;BME280;52164;52.212;-1.010;2023-01-24T04:43:47;102967.44;;;-4.64;79.81
62946;BME280;52164;52.212;-1.010;2023-01-24T04:46:12;102965.00;;;-4.66;79.62
62946;BME280;52164;52.212;-1.010;2023-01-24T04:48:38;102968.64;;;-4.66;79.86
62946;BME280;52164;52.212;-1.010;2023-01-24T04:51:04;102966.59;;;-4.69;79.60
62946;BME280;52164;52.212;-1.010;2023-01-24T04:53:29;102965.30;;;-4.73;79.62
62946;BME280;52164;52.212;-1.010;2023-01-24T04:55:59;102970.08;;;-4.76;79.86
62946;BME280;52164;52.212;-1.010;2023-01-24T04:58:24;102968.77;;;-4.80;79.84
62946;BME280;52164;52.212;-1.010;2023-01-24T05:00:49;102967.23;;;-4.84;79.91
62946;BME280;52164;52.212;-1.010;2023-01-24T05:03:15;102971.45;;;-4.87;79.88
62946;BME280;52164;52.212;-1.010;2023-01-24T05:05:40;102969.94;;;-4.91;79.84
62946;BME280;52164;52.212;-1.010;2023-01-24T05:08:06;102972.27;;;-4.94;79.78
62946;BME280;52164;52.212;-1.010;2023-01-24T05:10:31;102971.21;;;-4.98;79.76
62946;BME280;52164;52.212;-1.010;2023-01-24T05:12:56;102974.79;;;-4.99;79.66
62946;BME280;52164;52.212;-1.010;2023-01-24T05:15:22;102968.67;;;-5.00;79.62
62946;BME280;52164;52.212;-1.010;2023-01-24T05:17:48;102971.23;;;-5.03;79.76
62946;BME280;52164;52.212;-1.010;2023-01-24T05:20:13;102977.35;;;-5.02;79.69
62946;BME280;52164;52.212;-1.010;2023-01-24T05:22:38;102973.08;;;-5.01;79.79
62946;BME280;52164;52.212;-1.010;2023-01-24T05:25:04;102976.14;;;-4.99;80.01
62946;BME280;52164;52.212;-1.010;2023-01-24T05:27:29;102975.64;;;-4.97;80.04
62946;BME280;52164;52.212;-1.010;2023-01-24T05:29:55;102976.48;;;-4.96;79.98
62946;BME280;52164;52.212;-1.010;2023-01-24T05:32:20;102976.42;;;-4.95;80.11
62946;BME280;52164;52.212;-1.010;2023-01-24T05:34:45;102977.22;;;-4.93;79.79
62946;BME280;52164;52.212;-1.010;2023-01-24T05:37:10;102976.81;;;-4.92;80.06
62946;BME280;52164;52.212;-1.010;2023-01-24T05:39:36;102981.11;;;-4.91;80.08
62946;BME280;52164;52.212;-1.010;2023-01-24T05:42:01;102983.13;;;-4.92;79.88
62946;BME280;52164;52.212;-1.010;2023-01-24T05:44:26;102988.10;;;-4.94;79.65
62946;BME280;52164;52.212;-1.010;2023-01-24T05:46:51;102986.45;;;-4.99;79.37
62946;BME280;52164;52.212;-1.010;2023-01-24T05:49:17;102981.60;;;-5.02;79.48
62946;BME280;52164;52.212;-1.010;2023-01-24T05:51:42;102981.80;;;-5.05;79.46
62946;BME280;52164;52.212;-1.010;2023-01-24T05:54:07;102985.48;;;-5.08;79.54
62946;BME280;52164;52.212;-1.010;2023-01-24T05:56:33;102985.42;;;-5.12;79.72
62946;BME280;52164;52.212;-1.010;2023-01-24T05:58:58;102984.96;;;-5.15;79.86
62946;BME280;52164;52.212;-1.010;2023-01-24T06:01:26;102987.05;;;-5.18;79.76
62946;BME280;52164;52.212;-1.010;2023-01-24T06:03:51;102986.25;;;-5.21;79.66
62946;BME280;52164;52.212;-1.010;2023-01-24T06:06:17;102989.20;;;-5.21;79.96
62946;BME280;52164;52.212;-1.010;2023-01-24T06:08:43;102992.81;;;-5.21;80.06
62946;BME280;52164;52.212;-1.010;2023-01-24T06:11:11;102999.41;;;-5.20;79.90
62946;BME280;52164;52.212;-1.010;2023-01-24T06:13:37;102998.84;;;-5.19;80.01
62946;BME280;52164;52.212;-1.010;2023-01-24T06:16:05;102999.35;;;-5.16;80.07
62946;BME280;52164;52.212;-1.010;2023-01-24T06:18:31;103001.14;;;-5.13;79.86
62946;BME280;52164;52.212;-1.010;2023-01-24T06:20:56;103001.73;;;-5.13;79.78
62946;BME280;52164;52.212;-1.010;2023-01-24T06:23:23;103000.89;;;-5.13;79.88
62946;BME280;52164;52.212;-1.010;2023-01-24T06:25:49;102996.39;;;-5.12;79.91
62946;BME280;52164;52.212;-1.010;2023-01-24T06:28:15;103002.52;;;-5.11;79.95
62946;BME280;52164;52.212;-1.010;2023-01-24T06:30:40;103004.31;;;-5.11;79.93
62946;BME280;52164;52.212;-1.010;2023-01-24T06:35:43;103006.48;;;-5.12;79.93
62946;BME280;52164;52.212;-1.010;2023-01-24T06:38:21;103007.52;;;-5.16;79.94
62946;BME280;52164;52.212;-1.010;2023-01-24T06:40:47;103004.74;;;-5.17;80.08
62946;BME280;52164;52.212;-1.010;2023-01-24T06:43:14;103009.69;;;-5.18;80.29
62946;BME280;52164;52.212;-1.010;2023-01-24T06:45:39;103014.55;;;-5.19;80.57
62946;BME280;52164;52.212;-1.010;2023-01-24T06:48:05;103008.44;;;-5.19;80.38
62946;BME280;52164;52.212;-1.010;2023-01-24T06:50:30;103005.79;;;-5.21;80.33
62946;BME280;52164;52.212;-1.010;2023-01-24T06:52:57;103006.48;;;-5.24;79.84
62946;BME280;52164;52.212;-1.010;2023-01-24T06:55:22;103013.08;;;-5.26;80.01
62946;BME280;52164;52.212;-1.010;2023-01-24T06:57:56;103015.11;;;-5.26;79.87
62946;BME280;52164;52.212;-1.010;2023-01-24T07:00:21;103017.37;;;-5.28;79.74
62946;BME280;52164;52.212;-1.010;2023-01-24T07:02:47;103021.58;;;-5.28;79.66
62946;BME280;52164;52.212;-1.010;2023-01-24T07:05:12;103019.80;;;-5.30;79.54
62946;BME280;52164;52.212;-1.010;2023-01-24T07:07:37;103023.10;;;-5.30;79.60
62946;BME280;52164;52.212;-1.010;2023-01-24T07:10:07;103024.39;;;-5.31;80.04
62946;BME280;52164;52.212;-1.010;2023-01-24T07:12:32;103022.27;;;-5.28;80.17
62946;BME280;52164;52.212;-1.010;2023-01-24T07:14:58;103022.80;;;-5.25;80.34
62946;BME280;52164;52.212;-1.010;2023-01-24T07:17:23;103027.02;;;-5.21;80.19
62946;BME280;52164;52.212;-1.010;2023-01-24T07:19:48;103024.93;;;-5.19;80.06
62946;BME280;52164;52.212;-1.010;2023-01-24T07:22:14;103031.11;;;-5.18;80.02
62946;BME280;52164;52.212;-1.010;2023-01-24T07:24:39;103028.98;;;-5.19;80.14
62946;BME280;52164;52.212;-1.010;2023-01-24T07:27:07;103030.28;;;-5.18;80.25
62946;BME280;52164;52.212;-1.010;2023-01-24T07:29:33;103031.08;;;-5.19;79.90
62946;BME280;52164;52.212;-1.010;2023-01-24T07:31:58;103035.67;;;-5.20;79.88
62946;BME280;52164;52.212;-1.010;2023-01-24T07:34:23;103031.92;;;-5.20;79.88
62946;BME280;52164;52.212;-1.010;2023-01-24T07:36:49;103034.48;;;-5.21;79.94
62946;BME280;52164;52.212;-1.010;2023-01-24T07:39:14;103033.98;;;-5.22;79.86
62946;BME280;52164;52.212;-1.010;2023-01-24T07:41:39;103031.52;;;-5.24;79.94
62946;BME280;52164;52.212;-1.010;2023-01-24T07:44:07;103026.98;;;-5.28;79.84
62946;BME280;52164;52.212;-1.010;2023-01-24T07:46:32;103023.92;;;-5.29;80.11
62946;BME280;52164;52.212;-1.010;2023-01-24T07:48:58;103022.85;;;-5.31;80.10
62946;BME280;52164;52.212;-1.010;2023-01-24T07:51:23;103020.64;;;-5.34;80.24
62946;BME280;52164;52.212;-1.010;2023-01-24T07:53:48;103023.79;;;-5.35;80.44
62946;BME280;52164;52.212;-1.010;2023-01-24T07:56:14;103029.45;;;-5.37;80.50
62946;BME280;52164;52.212;-1.010;2023-01-24T07:58:41;103028.39;;;-5.39;80.40
62946;BME280;52164;52.212;-1.010;2023-01-24T08:01:07;103027.46;;;-5.40;80.57
62946;BME280;52164;52.212;-1.010;2023-01-24T08:03:32;103024.06;;;-5.37;80.83
62946;BME280;52164;52.212;-1.010;2023-01-24T08:05:57;103028.48;;;-5.35;80.81
62946;BME280;52164;52.212;-1.010;2023-01-24T08:08:22;103031.89;;;-5.31;80.76
62946;BME280;52164;52.212;-1.010;2023-01-24T08:10:48;103037.66;;;-5.26;80.96
62946;BME280;52164;52.212;-1.010;2023-01-24T08:13:13;103035.88;;;-5.19;80.97
62946;BME280;52164;52.212;-1.010;2023-01-24T08:15:38;103039.86;;;-5.13;80.92
62946;BME280;52164;52.212;-1.010;2023-01-24T08:18:04;103041.17;;;-5.07;80.83
62946;BME280;52164;52.212;-1.010;2023-01-24T08:20:29;103039.28;;;-5.00;80.89
62946;BME280;52164;52.212;-1.010;2023-01-24T08:22:54;103042.14;;;-4.90;81.20
62946;BME280;52164;52.212;-1.010;2023-01-24T08:25:21;103040.36;;;-4.81;81.18
62946;BME280;52164;52.212;-1.010;2023-01-24T08:27:46;103037.29;;;-4.75;80.80
62946;BME280;52164;52.212;-1.010;2023-01-24T08:30:11;103039.00;;;-4.70;80.60
62946;BME280;52164;52.212;-1.010;2023-01-24T08:32:37;103044.36;;;-4.67;80.23
62946;BME280;52164;52.212;-1.010;2023-01-24T08:35:03;103049.98;;;-4.65;80.06
62946;BME280;52164;52.212;-1.010;2023-01-24T08:37:28;103049.58;;;-4.65;79.66
62946;BME280;52164;52.212;-1.010;2023-01-24T08:39:53;103051.20;;;-4.66;79.48
62946;BME280;52164;52.212;-1.010;2023-01-24T08:42:21;103054.09;;;-4.67;79.55
62946;BME280;52164;52.212;-1.010;2023-01-24T08:44:47;103059.17;;;-4.67;79.71
62946;BME280;52164;52.212;-1.010;2023-01-24T08:47:12;103062.06;;;-4.64;79.71
62946;BME280;52164;52.212;-1.010;2023-01-24T08:49:37;103066.29;;;-4.62;79.71
62946;BME280;52164;52.212;-1.010;2023-01-24T08:52:03;103065.96;;;-4.59;79.75
62946;BME280;52164;52.212;-1.010;2023-01-24T08:54:28;103065.10;;;-4.57;79.74
62946;BME280;52164;52.212;-1.010;2023-01-24T08:56:54;103063.31;;;-4.54;79.86
62946;BME280;52164;52.212;-1.010;2023-01-24T08:59:19;103065.77;;;-4.50;79.93
62946;BME280;52164;52.212;-1.010;2023-01-24T09:01:45;103063.84;;;-4.45;79.95
62946;BME280;52164;52.212;-1.010;2023-01-24T09:04:10;103067.39;;;-4.39;79.97
62946;BME280;52164;52.212;-1.010;2023-01-24T09:06:36;103067.37;;;-4.32;79.92
62946;BME280;52164;52.212;-1.010;2023-01-24T09:09:01;103065.51;;;-4.23;80.06
62946;BME280;52164;52.212;-1.010;2023-01-24T09:11:30;103062.82;;;-4.14;80.21
62946;BME280;52164;52.212;-1.010;2023-01-24T09:13:56;103065.28;;;-4.03;80.27
62946;BME280;52164;52.212;-1.010;2023-01-24T09:16:22;103065.13;;;-3.90;80.33
62946;BME280;52164;52.212;-1.010;2023-01-24T09:18:47;103060.00;;;-3.79;80.13
62946;BME280;52164;52.212;-1.010;2023-01-24T09:21:14;103056.47;;;-3.70;80.17
62946;BME280;52164;52.212;-1.010;2023-01-24T09:23:39;103057.59;;;-3.60;80.36
62946;BME280;52164;52.212;-1.010;2023-01-24T09:26:05;103061.05;;;-3.52;80.26
62946;BME280;52164;52.212;-1.010;2023-01-24T09:28:30;103058.28;;;-3.44;80.16
62946;BME280;52164;52.212;-1.010;2023-01-24T09:30:55;103062.98;;;-3.37;80.08
62946;BME280;52164;52.212;-1.010;2023-01-24T09:33:21;103059.52;;;-3.31;80.04
62946;BME280;52164;52.212;-1.010;2023-01-24T09:35:50;103062.45;;;-3.25;80.13
62946;BME280;52164;52.212;-1.010;2023-01-24T09:38:16;103062.30;;;-3.19;80.26
62946;BME280;52164;52.212;-1.010;2023-01-24T09:40:43;103064.19;;;-3.14;80.27
62946;BME280;52164;52.212;-1.010;2023-01-24T09:45:21;103063.98;;;-3.09;80.49
62946;BME280;52164;52.212;-1.010;2023-01-24T09:45:58;103060.56;;;-3.02;80.55
62946;BME280;52164;52.212;-1.010;2023-01-24T09:48:30;103062.02;;;-2.96;80.66
62946;BME280;52164;52.212;-1.010;2023-01-24T09:50:59;103061.39;;;-2.90;80.78
62946;BME280;52164;52.212;-1.010;2023-01-24T09:53:29;103061.58;;;-2.84;80.86
62946;BME280;52164;52.212;-1.010;2023-01-24T09:55:55;103061.27;;;-2.78;80.78
62946;BME280;52164;52.212;-1.010;2023-01-24T09:58:31;103062.01;;;-2.72;81.10
62946;BME280;52164;52.212;-1.010;2023-01-24T10:00:59;103066.94;;;-2.64;80.96
62946;BME280;52164;52.212;-1.010;2023-01-24T10:03:24;103064.64;;;-2.59;81.14
62946;BME280;52164;52.212;-1.010;2023-01-24T10:05:51;103068.52;;;-2.53;81.19
62946;BME280;52164;52.212;-1.010;2023-01-24T10:08:19;103070.15;;;-2.47;81.39
62946;BME280;52164;52.212;-1.010;2023-01-24T10:10:50;103070.58;;;-2.41;81.55
62946;BME280;52164;52.212;-1.010;2023-01-24T10:14:34;103072.73;;;-2.32;81.68
62946;BME280;52164;52.212;-1.010;2023-01-24T10:16:35;103065.16;;;-2.23;81.48
62946;BME280;52164;52.212;-1.010;2023-01-24T10:18:52;103059.83;;;-2.15;81.70
62946;BME280;52164;52.212;-1.010;2023-01-24T10:23:52;103059.30;;;-1.98;81.85
62946;BME280;52164;52.212;-1.010;2023-01-24T10:26:20;103058.77;;;-1.90;82.00
62946;BME280;52164;52.212;-1.010;2023-01-24T10:28:49;103056.02;;;-1.84;81.91
62946;BME280;52164;52.212;-1.010;2023-01-24T10:31:19;103053.14;;;-1.77;81.93
62946;BME280;52164;52.212;-1.010;2023-01-24T10:33:47;103047.02;;;-1.71;81.96
62946;BME280;52164;52.212;-1.010;2023-01-24T10:38:38;103045.79;;;-1.57;81.84
62946;BME280;52164;52.212;-1.010;2023-01-24T10:41:11;103045.17;;;-1.50;82.01
62946;BME280;52164;52.212;-1.010;2023-01-24T10:43:38;103043.14;;;-1.44;81.89
62946;BME280;52164;52.212;-1.010;2023-01-24T10:46:25;103041.80;;;-1.37;81.94
62946;BME280;52164;52.212;-1.010;2023-01-24T10:48:49;103042.92;;;-1.28;81.85
62946;BME280;52164;52.212;-1.010;2023-01-24T10:51:17;103046.06;;;-1.20;81.96
62946;BME280;52164;52.212;-1.010;2023-01-24T10:53:42;103043.98;;;-1.12;82.21
62946;BME280;52164;52.212;-1.010;2023-01-24T10:56:08;103040.96;;;-1.05;82.26
62946;BME280;52164;52.212;-1.010;2023-01-24T10:58:36;103038.95;;;-0.96;82.29
62946;BME280;52164;52.212;-1.010;2023-01-24T11:01:06;103034.91;;;-0.87;82.54
62946;BME280;52164;52.212;-1.010;2023-01-24T11:03:32;103036.95;;;-0.78;82.36
62946;BME280;52164;52.212;-1.010;2023-01-24T11:06:00;103035.94;;;-0.69;82.48
62946;BME280;52164;52.212;-1.010;2023-01-24T11:08:26;103033.88;;;-0.61;82.53
62946;BME280;52164;52.212;-1.010;2023-01-24T11:10:56;103031.67;;;-0.49;82.75
62946;BME280;52164;52.212;-1.010;2023-01-24T11:15:54;103027.02;;;-0.26;83.16
62946;BME280;52164;52.212;-1.010;2023-01-24T11:18:21;103026.44;;;-0.11;83.16
62946;BME280;52164;52.212;-1.010;2023-01-24T11:20:52;103021.39;;;0.04;83.03
62946;BME280;52164;52.212;-1.010;2023-01-24T11:23:28;103020.73;;;0.22;83.19
62946;BME280;52164;52.212;-1.010;2023-01-24T11:25:56;103023.09;;;0.38;83.00
62946;BME280;52164;52.212;-1.010;2023-01-24T11:28:22;103022.47;;;0.54;82.97
62946;BME280;52164;52.212;-1.010;2023-01-24T11:30:48;103018.45;;;0.69;83.08
62946;BME280;52164;52.212;-1.010;2023-01-24T11:33:20;103015.68;;;0.83;82.78
62946;BME280;52164;52.212;-1.010;2023-01-24T11:35:52;103013.02;;;0.96;82.60
62946;BME280;52164;52.212;-1.010;2023-01-24T11:40:46;102999.09;;;1.18;82.44
62946;BME280;52164;52.212;-1.010;2023-01-24T11:45:32;102996.54;;;1.26;82.22
62946;BME280;52164;52.212;-1.010;2023-01-24T11:46:06;102993.02;;;1.35;82.19
62946;BME280;52164;52.212;-1.010;2023-01-24T11:48:47;102989.42;;;1.41;82.09
62946;BME280;52164;52.212;-1.010;2023-01-24T11:51:29;102991.59;;;1.47;82.01
62946;BME280;52164;52.212;-1.010;2023-01-24T11:54:04;102984.05;;;1.51;81.99
62946;BME280;52164;52.212;-1.010;2023-01-24T11:56:45;102980.52;;;1.56;82.19
62946;BME280;52164;52.212;-1.010;2023-01-24T11:59:21;102979.12;;;1.61;82.24
62946;BME280;52164;52.212;-1.010;2023-01-24T12:04:54;102967.95;;;1.69;81.69
62946;BME280;52164;52.212;-1.010;2023-01-24T12:07:07;102963.70;;;1.73;81.56
62946;BME280;52164;52.212;-1.010;2023-01-24T12:09:38;102960.45;;;1.77;81.48
62946;BME280;52164;52.212;-1.010;2023-01-24T12:14:26;102958.29;;;1.81;81.32
62946;BME280;52164;52.212;-1.010;2023-01-24T12:17:38;102947.52;;;1.88;81.25
62946;BME280;52164;52.212;-1.010;2023-01-24T12:22:32;102941.18;;;1.93;81.17
62946;BME280;52164;52.212;-1.010;2023-01-24T12:25:02;102940.77;;;1.97;81.07
62946;BME280;52164;52.212;-1.010;2023-01-24T12:27:30;102935.52;;;1.99;81.15
62946;BME280;52164;52.212;-1.010;2023-01-24T12:31:01;102932.73;;;2.02;80.92
62946;BME280;52164;52.212;-1.010;2023-01-24T12:32:49;102924.23;;;2.07;80.60
62946;BME280;52164;52.212;-1.010;2023-01-24T12:35:20;102920.67;;;2.11;80.45
62946;BME280;52164;52.212;-1.010;2023-01-24T12:42:40;102908.02;;;2.28;80.01
62946;BME280;52164;52.212;-1.010;2023-01-24T12:45:12;102908.98;;;2.37;80.29
62946;BME280;52164;52.212;-1.010;2023-01-24T12:47:44;102908.55;;;2.46;80.15
62946;BME280;52164;52.212;-1.010;2023-01-24T12:50:13;102899.37;;;2.56;80.13
62946;BME280;52164;52.212;-1.010;2023-01-24T12:52:52;102902.45;;;2.67;79.93
62946;BME280;52164;52.212;-1.010;2023-01-24T12:55:20;102906.84;;;2.79;79.77
62946;BME280;52164;52.212;-1.010;2023-01-24T13:05:40;102908.42;;;3.10;78.93
62946;BME280;52164;52.212;-1.010;2023-01-24T13:12:57;102899.06;;;3.23;78.57
62946;BME280;52164;52.212;-1.010;2023-01-24T13:15:47;102897.57;;;3.26;78.47
62946;BME280;52164;52.212;-1.010;2023-01-24T13:20:56;102893.46;;;3.33;78.09
62946;BME280;52164;52.212;-1.010;2023-01-24T13:23:29;102889.61;;;3.37;77.89
62946;BME280;52164;52.212;-1.010;2023-01-24T13:26:09;102884.05;;;3.41;77.74